La Belle Poule — FBPU — position and weather

sailwx.info

Track history (hours):
 
Tides and Currents Weather Stations Pressure Air Temp Water Temp Dewpoint Dewpoint Depression Visibility Wind Speed Wind Dir Waves Ship Positions

La Belle Poule (France)

Ship's website: http://www.defense.gouv.fr/english/portail-defense

Last reported at 2017-Apr-26 11:30 UTC. Time now 2017-Apr-26 11:40 UTC.
Position N 48°18' W 004°24'.

Length 38 m; draft 3.6 m.

Type: Sailing vessel. MMSI: 228796000.

Date/timePositionNaut miles runAvg speedWind from/ knotsBaromVisibWave heightAir tempDewpointWater temp
2017-Apr-26 11:30N 48°18' W 004°24'0 0.5
2017-Apr-26 11:00N 48°18' W 004°24'3 5.4
2017-Apr-26 10:30N 48°19' W 004°28'3 5.3
2017-Apr-26 10:00N 48°18' W 004°24'0 0.1
2017-Apr-26 09:30N 48°18' W 004°24'3 5.7
2017-Apr-26 09:00N 48°19' W 004°28'0 0.9
2017-Apr-26 08:30N 48°20' W 004°28'2 4.1
2017-Apr-26 08:00N 48°21' W 004°29'1 1.8
2017-Apr-26 07:22N 48°23' W 004°28'1 0.1
2017-Apr-25 09:48N 48°23' W 004°30'1 2.2
2017-Apr-25 09:28N 48°22' W 004°29'1 2.6
2017-Apr-25 09:00N 48°21' W 004°29'1 1.1
2017-Apr-25 08:30N 48°21' W 004°29'2 3.1
2017-Apr-25 08:00N 48°19' W 004°28'1 1.7
2017-Apr-25 07:30N 48°20' W 004°28'3 5.4
2017-Apr-25 06:59N 48°23' W 004°30'0 0.2
2017-Apr-25 06:18N 48°23' W 004°30'  
2017-Apr-21 14:39N 48°23' W 004°30'0 0.0
2017-Apr-21 14:27N 48°23' W 004°30'0 0.0
2017-Apr-21 11:48N 48°23' W 004°30'0 0.7
2017-Apr-21 11:21N 48°23' W 004°30'1 1.9
2017-Apr-21 11:00N 48°22' W 004°29'1 1.7
2017-Apr-21 10:30N 48°21' W 004°29'0 0.3
2017-Apr-21 10:00N 48°21' W 004°29'1 1.5
2017-Apr-21 09:30N 48°20' W 004°28'2 3.1
2017-Apr-21 09:00N 48°19' W 004°28'1 2.5
2017-Apr-21 08:30N 48°20' W 004°28'1 2.1
2017-Apr-21 07:56N 48°21' W 004°29'1 1.3
2017-Apr-21 07:28N 48°22' W 004°28'1 1.7
2017-Apr-21 07:00N 48°23' W 004°28'1 0.9
2017-Apr-21 05:52N 48°23' W 004°30'0 0.0
2017-Apr-20 14:20N 48°23' W 004°30'3 3.3
2017-Apr-20 13:30N 48°20' W 004°29'1 1.5
2017-Apr-20 13:00N 48°19' W 004°28'3 6.0
2017-Apr-20 12:30N 48°22' W 004°29'1 1.3
2017-Apr-20 11:53N 48°23' W 004°30'1 1.7
2017-Apr-20 11:30N 48°22' W 004°29'2 3.2
2017-Apr-20 11:00N 48°21' W 004°29'1 2.1
2017-Apr-20 10:30N 48°20' W 004°28'0 0.7
2017-Apr-20 10:00N 48°19' W 004°28'2 4.7
2017-Apr-20 09:30N 48°22' W 004°29'1 1.6
2017-Apr-20 08:43N 48°23' W 004°30'1 2.8
2017-Apr-20 08:30N 48°22' W 004°29'1 1.5
2017-Apr-20 08:00N 48°22' W 004°29'0 0.6
2017-Apr-20 07:30N 48°21' W 004°29'1 1.5
2017-Apr-20 06:59N 48°22' W 004°28'1 0.1
2017-Apr-19 14:16N 48°23' W 004°30'3 3.8
2017-Apr-19 13:30N 48°20' W 004°28'3 5.3
2017-Apr-19 13:00N 48°21' W 004°32'4 8.0
2017-Apr-19 12:30N 48°18' W 004°28'3 5.9
2017-Apr-19 12:00N 48°21' W 004°29'2 1.3
2017-Apr-19 10:33N 48°23' W 004°30'0 0.0
2017-Apr-19 09:49N 48°23' W 004°30'1 1.8
2017-Apr-19 09:30N 48°22' W 004°29'1 2.2
2017-Apr-19 09:00N 48°21' W 004°30'2 4.4
2017-Apr-19 08:30N 48°19' W 004°28'2 4.2
2017-Apr-19 07:58N 48°22' W 004°28'1 2.4
2017-Apr-19 07:28N 48°23' W 004°29'1 0.6
2017-Apr-19 06:30N 48°23' W 004°30'0 0.0
2017-Apr-19 06:00N 48°23' W 004°30'0 0.0
2017-Apr-18 13:38N 48°23' W 004°30'0 0.0
2017-Apr-18 12:17N 48°23' W 004°30'0 0.0
2017-Apr-18 11:53N 48°23' W 004°30'0 0.0
2017-Apr-18 10:38N 48°23' W 004°30'0 0.0
2017-Apr-18 09:53N 48°23' W 004°30'0 0.0
2017-Apr-18 08:53N 48°23' W 004°30'  
Track history (hours):
 
Tides and Currents Weather Stations Pressure Air Temp Water Temp Dewpoint Dewpoint Depression Visibility Wind Speed Wind Dir Waves Ship Positions

La Belle Poule (France)

Ship's website: http://www.defense.gouv.fr/english/portail-defense

Last reported at 2017-Apr-26 11:30 UTC. Time now 2017-Apr-26 11:41 UTC.
Position N 48°18' W 004°24'.

Length 38 m; draft 3.6 m.

Type: Sailing vessel. MMSI: 228796000.

Date/timePositionNaut miles runAvg speedWind from/ knotsBaromVisibWave heightAir tempDewpointWater temp
2017-Apr-26 11:30N 48°18' W 004°24'0 0.5
2017-Apr-26 11:00N 48°18' W 004°24'3 5.4
2017-Apr-26 10:30N 48°19' W 004°28'3 5.3
2017-Apr-26 10:00N 48°18' W 004°24'0 0.1
2017-Apr-26 09:30N 48°18' W 004°24'3 5.7
2017-Apr-26 09:00N 48°19' W 004°28'0 0.9
2017-Apr-26 08:30N 48°20' W 004°28'2 4.1
2017-Apr-26 08:00N 48°21' W 004°29'1 1.8
2017-Apr-26 07:22N 48°23' W 004°28'1 0.1
2017-Apr-25 09:48N 48°23' W 004°30'1 2.2
2017-Apr-25 09:28N 48°22' W 004°29'1 2.6
2017-Apr-25 09:00N 48°21' W 004°29'1 1.1
2017-Apr-25 08:30N 48°21' W 004°29'2 3.1
2017-Apr-25 08:00N 48°19' W 004°28'1 1.7
2017-Apr-25 07:30N 48°20' W 004°28'3 5.4
2017-Apr-25 06:59N 48°23' W 004°30'0 0.2
2017-Apr-25 06:18N 48°23' W 004°30'  
2017-Apr-21 14:39N 48°23' W 004°30'0 0.0
2017-Apr-21 14:27N 48°23' W 004°30'0 0.0
2017-Apr-21 11:48N 48°23' W 004°30'0 0.7
2017-Apr-21 11:21N 48°23' W 004°30'1 1.9
2017-Apr-21 11:00N 48°22' W 004°29'1 1.7
2017-Apr-21 10:30N 48°21' W 004°29'0 0.3
2017-Apr-21 10:00N 48°21' W 004°29'1 1.5
2017-Apr-21 09:30N 48°20' W 004°28'2 3.1
2017-Apr-21 09:00N 48°19' W 004°28'1 2.5
2017-Apr-21 08:30N 48°20' W 004°28'1 2.1
2017-Apr-21 07:56N 48°21' W 004°29'1 1.3
2017-Apr-21 07:28N 48°22' W 004°28'1 1.7
2017-Apr-21 07:00N 48°23' W 004°28'1 0.9
2017-Apr-21 05:52N 48°23' W 004°30'0 0.0
2017-Apr-20 14:20N 48°23' W 004°30'3 3.3
2017-Apr-20 13:30N 48°20' W 004°29'1 1.5
2017-Apr-20 13:00N 48°19' W 004°28'3 6.0
2017-Apr-20 12:30N 48°22' W 004°29'1 1.3
2017-Apr-20 11:53N 48°23' W 004°30'1 1.7
2017-Apr-20 11:30N 48°22' W 004°29'2 3.2
2017-Apr-20 11:00N 48°21' W 004°29'1 2.1
2017-Apr-20 10:30N 48°20' W 004°28'0 0.7
2017-Apr-20 10:00N 48°19' W 004°28'2 4.7
2017-Apr-20 09:30N 48°22' W 004°29'1 1.6
2017-Apr-20 08:43N 48°23' W 004°30'1 2.8
2017-Apr-20 08:30N 48°22' W 004°29'1 1.5
2017-Apr-20 08:00N 48°22' W 004°29'0 0.6
2017-Apr-20 07:30N 48°21' W 004°29'1 1.5
2017-Apr-20 06:59N 48°22' W 004°28'1 0.1
2017-Apr-19 14:16N 48°23' W 004°30'3 3.8
2017-Apr-19 13:30N 48°20' W 004°28'3 5.3
2017-Apr-19 13:00N 48°21' W 004°32'4 8.0
2017-Apr-19 12:30N 48°18' W 004°28'3 5.9
2017-Apr-19 12:00N 48°21' W 004°29'2 1.3
2017-Apr-19 10:33N 48°23' W 004°30'0 0.0
2017-Apr-19 09:49N 48°23' W 004°30'1 1.8
2017-Apr-19 09:30N 48°22' W 004°29'1 2.2
2017-Apr-19 09:00N 48°21' W 004°30'2 4.4
2017-Apr-19 08:30N 48°19' W 004°28'2 4.2
2017-Apr-19 07:58N 48°22' W 004°28'1 2.4
2017-Apr-19 07:28N 48°23' W 004°29'1 0.6
2017-Apr-19 06:30N 48°23' W 004°30'0 0.0
2017-Apr-19 06:00N 48°23' W 004°30'0 0.0
2017-Apr-18 13:38N 48°23' W 004°30'0 0.0
2017-Apr-18 12:17N 48°23' W 004°30'0 0.0
2017-Apr-18 11:53N 48°23' W 004°30'0 0.0
2017-Apr-18 10:38N 48°23' W 004°30'0 0.0
2017-Apr-18 09:53N 48°23' W 004°30'0 0.0
2017-Apr-18 08:53N 48°23' W 004°30'  

Dump ship's entire track history